Portada
METAR-TAF:

METAR-TAF

Aeroports :

Medina, Aràbia Saudita

latitud: 24-33N, longitud: 039-42E, altitud: 654 m

Observació

L'informe es va fer fa 29 minuts, a les 22:00 UTC
Vent 2 kt del Sud-Oest
Temperatura 24°C
Humitat 44%
Pressió 1015 hPa
Visibilitat 10 km o més
sense núvols per sota de 1500 mi sense presència de cumulonimbus.

METAR: OEMA 172200Z 22002KT CAVOK 24/11 Q1015 NOSIG

Hora: 01:29 (22:29 UTC)

Pronòstic

L'informe es va fer fa 5 hores i 29 minuts, a les 17:00 UTC
Pronòstic vàlid del 17 a les 18 UTC al 18 a les 24 UTC
Vent 3 kt amb direcció variable
Visibilitat 10 km o més
Escasses núvols a una alçada de 4000 ft
Evolucionant progressivament
l' 18 a les 08 UTC al 18 a les 10 UTC
Vent 10 kt del Sud/Sud-Est amb ràfegues de 20 kt
Temporalment
l' 18 a les 10 UTC al 18 a les 15 UTC
Visibilitat: 4000 m
Pols estès, torb alta de pols

TAF: OEMA 171700Z 1718/1824 VRB03KT 9999 FEW040 BECMG 1808/1810 15010G20KT TEMPO 1810/1815 4000 DU BLDU

Observacions i pronòstics meteorològics de més de 4000 aeroports (METAR i TAF).

Les estacions disponibles són els punts grocs i vermells al mapa.

Posi el ratolí al punt desitjat per veure el nom de l'estació.

Feu clic per veure les observacions i els pronòstics meteorològics.

Per canviar el mapa: feu clic els botons verds amb una creu de color negre per apropar; al botó verd amb un guió per allunyar la imatge; o en les fletxes verdes per a mapes adjacents.


METAR-TAF: